Time;durP1;ratioP1;P1;durP2;ratioP2;P2;SDS_P1;SDS_P2;PMS_P1;PMS_P2;Temp;Humidity;BMP_temperature;BMP_pressure;BME280_temperature;BME280_humidity;BME280_pressure;Samples;Min_cycle;Max_cycle;Signal;HPM_P1;HPM_P2
2022/03/08 00:01:04;;;;;;;15.30;13.80;;;0.30;66.20;;;;;;6105688;23;20599;-75
2022/03/08 00:03:31;;;;;;;15.52;13.93;;;0.20;66.60;;;;;;6114513;23;20222;-74
2022/03/08 00:05:58;;;;;;;16.05;14.45;;;0.20;67.10;;;;;;6115005;23;20306;-74
2022/03/08 00:08:25;;;;;;;15.45;13.70;;;0.20;67.50;;;;;;6107334;23;20270;-74
2022/03/08 00:10:53;;;;;;;16.25;14.55;;;0.20;67.90;;;;;;6110174;23;20270;-75
2022/03/08 00:13:21;;;;;;;15.77;14.02;;;0.10;67.50;;;;;;6107604;23;20291;-75
2022/03/08 00:15:49;;;;;;;14.10;12.65;;;0.20;67.80;;;;;;6113054;23;20200;-75
2022/03/08 00:18:17;;;;;;;15.18;13.68;;;0.20;67.40;;;;;;6103372;23;20279;-75
2022/03/08 00:20:43;;;;;;;14.43;12.10;;;0.20;67.70;;;;;;6113590;23;20245;-74
2022/03/08 00:23:11;;;;;;;14.13;12.75;;;0.20;67.40;;;;;;6115487;23;20214;-74
2022/03/08 00:25:38;;;;;;;14.48;13.00;;;0.10;67.40;;;;;;6115692;23;20219;-75
2022/03/08 00:28:06;;;;;;;13.80;12.40;;;0.10;67.70;;;;;;6120177;23;20192;-74
2022/03/08 00:30:33;;;;;;;15.65;12.95;;;0.10;67.80;;;;;;6114714;23;20208;-75
2022/03/08 00:33:00;;;;;;;13.90;12.50;;;0.10;67.80;;;;;;6113038;23;20212;-75
2022/03/08 00:35:27;;;;;;;15.30;13.70;;;0.10;68.20;;;;;;6118682;23;20270;-74
2022/03/08 00:37:56;;;;;;;15.98;13.98;;;0.10;68.40;;;;;;6120014;23;20194;-75
2022/03/08 00:40:24;;;;;;;14.73;13.15;;;0.10;68.80;;;;;;6116144;23;20201;-75
2022/03/08 00:42:51;;;;;;;15.32;13.82;;;0.10;69.00;;;;;;6115811;23;20239;-74
2022/03/08 00:45:20;;;;;;;14.60;13.13;;;0.10;69.10;;;;;;6111024;23;20227;-79
2022/03/08 00:47:47;;;;;;;15.80;14.05;;;0.00;69.30;;;;;;6092071;23;20223;-75
2022/03/08 00:50:18;;;;;;;14.18;12.68;;;0.00;69.50;;;;;;6113493;23;20199;-75
2022/03/08 00:52:46;;;;;;;18.50;14.32;;;0.00;70.40;;;;;;6097285;23;20213;-74
2022/03/08 00:55:14;;;;;;;14.95;13.13;;;0.00;70.40;;;;;;6110517;23;20197;-80
2022/03/08 00:57:41;;;;;;;14.98;13.38;;;0.00;70.40;;;;;;6107403;23;20222;-74
2022/03/08 01:00:11;;;;;;;18.02;14.18;;;-0.10;70.50;;;;;;6110821;23;20196;-74
2022/03/08 01:02:40;;;;;;;14.40;12.90;;;-0.10;70.70;;;;;;6113794;23;20207;-74
2022/03/08 01:05:07;;;;;;;14.40;12.88;;;-0.10;71.30;;;;;;6106237;23;20248;-74
2022/03/08 01:07:35;;;;;;;13.80;12.40;;;-0.10;71.40;;;;;;6118460;23;20187;-74
2022/03/08 01:10:03;;;;;;;14.20;12.70;;;-0.10;71.60;;;;;;6118749;23;20275;-74
2022/03/08 01:12:30;;;;;;;13.35;12.05;;;-0.10;71.60;;;;;;6108542;23;20200;-74
2022/03/08 01:14:57;;;;;;;14.45;12.95;;;-0.20;71.70;;;;;;6117276;23;20188;-74
2022/03/08 01:17:25;;;;;;;14.10;12.45;;;-0.20;72.30;;;;;;6099701;23;20192;-74
2022/03/08 01:19:53;;;;;;;15.07;12.65;;;-0.20;72.50;;;;;;6091928;23;20187;-75
2022/03/08 01:22:21;;;;;;;14.23;12.43;;;-0.20;72.40;;;;;;6109639;23;20270;-74
2022/03/08 01:24:48;;;;;;;14.38;12.40;;;-0.20;72.70;;;;;;6105644;23;20743;-76
2022/03/08 01:27:14;;;;;;;14.75;13.15;;;-0.20;73.10;;;;;;6117498;23;20188;-73
2022/03/08 01:29:42;;;;;;;15.32;13.73;;;-0.20;73.20;;;;;;6109086;23;20279;-75
2022/03/08 01:32:09;;;;;;;14.30;12.80;;;-0.20;73.40;;;;;;6106794;23;20180;-75
2022/03/08 01:34:36;;;;;;;16.27;13.75;;;-0.20;73.70;;;;;;6114807;23;20213;-74
2022/03/08 01:37:05;;;;;;;14.82;12.90;;;-0.20;74.00;;;;;;6117920;23;20222;-75
2022/03/08 01:39:32;;;;;;;13.73;12.23;;;-0.20;73.80;;;;;;6120391;23;20267;-74
2022/03/08 01:42:00;;;;;;;14.02;12.52;;;-0.20;73.80;;;;;;6107521;23;20196;-76
2022/03/08 01:44:27;;;;;;;14.48;12.88;;;-0.20;74.00;;;;;;6110029;23;20211;-74
2022/03/08 01:46:54;;;;;;;12.95;11.68;;;-0.30;74.00;;;;;;6115648;23;20187;-76
2022/03/08 01:49:20;;;;;;;12.68;11.38;;;-0.30;73.90;;;;;;6120338;23;20227;-74
2022/03/08 01:51:48;;;;;;;13.27;11.95;;;-0.30;73.70;;;;;;6115051;23;20188;-76
2022/03/08 01:54:16;;;;;;;12.65;11.30;;;-0.30;73.60;;;;;;6118037;23;20726;-74
2022/03/08 01:56:44;;;;;;;11.95;10.55;;;-0.30;73.60;;;;;;6118975;23;20286;-74
2022/03/08 01:59:11;;;;;;;12.27;11.00;;;-0.30;73.80;;;;;;6116264;23;20203;-74
2022/03/08 02:01:38;;;;;;;12.80;11.45;;;-0.30;73.50;;;;;;6116597;23;20583;-74
2022/03/08 02:04:05;;;;;;;11.60;10.40;;;-0.30;73.50;;;;;;6116387;23;20302;-74
2022/03/08 02:06:32;;;;;;;11.43;10.32;;;-0.30;73.70;;;;;;6117887;23;20219;-74
2022/03/08 02:08:59;;;;;;;14.25;11.43;;;-0.30;73.70;;;;;;6119772;23;20191;-74
2022/03/08 02:11:28;;;;;;;13.30;11.88;;;-0.20;73.50;;;;;;6109916;23;20195;-74
2022/03/08 02:13:55;;;;;;;11.88;10.60;;;-0.30;73.30;;;;;;6117367;23;20579;-74
2022/03/08 02:16:22;;;;;;;11.57;10.45;;;-0.30;73.20;;;;;;6100206;23;20196;-75
2022/03/08 02:18:49;;;;;;;12.85;11.40;;;-0.30;74.00;;;;;;6117711;23;20188;-73
2022/03/08 02:21:18;;;;;;;11.30;10.20;;;-0.30;74.10;;;;;;6118961;23;20270;-74
2022/03/08 02:23:45;;;;;;;12.63;11.32;;;-0.30;73.70;;;;;;6116582;23;20246;-74
2022/03/08 02:26:11;;;;;;;12.57;11.27;;;-0.30;74.10;;;;;;6113439;23;20298;-74
2022/03/08 02:28:40;;;;;;;12.63;11.32;;;-0.30;74.00;;;;;;6118412;23;20207;-75
2022/03/08 02:31:07;;;;;;;11.55;10.45;;;-0.30;73.80;;;;;;6115446;23;20543;-74
2022/03/08 02:33:34;;;;;;;10.90;9.85;;;-0.30;73.50;;;;;;6104351;23;20222;-75
2022/03/08 02:36:01;;;;;;;11.85;10.75;;;-0.30;73.60;;;;;;6117337;23;20270;-74
2022/03/08 02:38:30;;;;;;;11.80;10.60;;;-0.30;74.00;;;;;;6105186;23;20270;-75
2022/03/08 02:40:56;;;;;;;12.30;11.02;;;-0.30;74.00;;;;;;6118311;23;20203;-74
2022/03/08 02:43:24;;;;;;;11.85;10.75;;;-0.40;74.30;;;;;;6110729;23;20294;-74
2022/03/08 02:45:50;;;;;;;11.88;10.20;;;-0.40;74.30;;;;;;6116793;23;20284;-74
2022/03/08 02:48:17;;;;;;;12.52;11.35;;;-0.40;75.10;;;;;;6112431;23;20215;-73
2022/03/08 02:50:44;;;;;;;12.48;11.27;;;-0.40;75.20;;;;;;6110229;23;20273;-74
2022/03/08 02:53:12;;;;;;;13.15;11.15;;;-0.50;75.10;;;;;;6115324;23;20286;-74
2022/03/08 02:55:40;;;;;;;11.90;10.85;;;-0.50;75.40;;;;;;6102978;23;20280;-74
2022/03/08 02:58:07;;;;;;;12.32;11.13;;;-0.50;75.30;;;;;;6109448;23;20279;-76
2022/03/08 03:00:35;;;;;;;12.60;11.30;;;-0.50;75.30;;;;;;6114505;23;20202;-73
2022/03/08 03:03:03;;;;;;;11.75;10.48;;;-0.50;75.30;;;;;;6118230;23;20243;-74
2022/03/08 03:05:30;;;;;;;12.73;11.32;;;-0.50;75.20;;;;;;6109126;23;20651;-74
2022/03/08 03:07:59;;;;;;;10.80;9.70;;;-0.50;75.10;;;;;;6119512;23;20567;-74
2022/03/08 03:10:27;;;;;;;11.90;10.70;;;-0.50;74.90;;;;;;6119122;23;20234;-75
2022/03/08 03:12:56;;;;;;;12.60;11.30;;;-0.50;75.00;;;;;;6109485;23;20252;-74
2022/03/08 03:15:25;;;;;;;13.85;11.77;;;-0.50;75.10;;;;;;6099138;23;20192;-74
2022/03/08 03:17:52;;;;;;;12.10;10.77;;;-0.50;74.90;;;;;;6120163;23;20187;-74
2022/03/08 03:20:21;;;;;;;11.75;10.63;;;-0.60;75.20;;;;;;6117298;23;20255;-74
2022/03/08 03:22:49;;;;;;;12.18;10.88;;;-0.60;75.30;;;;;;6106127;23;20598;-73
2022/03/08 03:25:17;;;;;;;12.73;11.23;;;-0.60;75.50;;;;;;6111574;23;20238;-74
2022/03/08 03:27:44;;;;;;;12.07;10.77;;;-0.60;75.20;;;;;;6114001;23;20242;-74
2022/03/08 03:30:14;;;;;;;11.80;10.60;;;-0.70;75.70;;;;;;6114679;23;20771;-74
2022/03/08 03:32:42;;;;;;;11.13;10.02;;;-0.70;75.90;;;;;;6113050;23;20212;-75
2022/03/08 03:35:11;;;;;;;12.85;11.55;;;-0.70;75.80;;;;;;6116824;23;20270;-74
2022/03/08 03:37:38;;;;;;;13.45;11.25;;;-0.70;75.80;;;;;;6099019;23;20198;-75
2022/03/08 03:40:06;;;;;;;12.90;11.57;;;-0.70;75.90;;;;;;6112534;23;20199;-73
2022/03/08 03:42:33;;;;;;;11.60;10.40;;;-0.80;76.00;;;;;;6109647;23;20220;-74
2022/03/08 03:45:00;;;;;;;11.50;10.30;;;-0.80;76.10;;;;;;6105814;23;20200;-74
2022/03/08 03:47:28;;;;;;;13.43;10.98;;;-0.80;75.80;;;;;;6090870;23;20655;-75
2022/03/08 03:49:55;;;;;;;11.70;10.50;;;-0.80;76.00;;;;;;6108737;23;20266;-74
2022/03/08 03:52:22;;;;;;;11.82;10.52;;;-0.80;75.90;;;;;;6092619;23;20290;-74
2022/03/08 03:54:49;;;;;;;12.05;10.85;;;-0.80;76.20;;;;;;6104222;23;20192;-74
2022/03/08 03:57:16;;;;;;;12.75;10.90;;;-0.80;76.20;;;;;;6100517;23;20270;-74
2022/03/08 03:59:43;;;;;;;12.15;9.98;;;-0.80;76.00;;;;;;6110290;23;20275;-74
2022/03/08 04:02:10;;;;;;;10.52;9.50;;;-0.80;75.60;;;;;;6100959;23;20216;-74
2022/03/08 04:04:38;;;;;;;11.82;10.43;;;-0.80;75.40;;;;;;6104806;23;20192;-74
2022/03/08 04:07:05;;;;;;;11.68;10.63;;;-0.70;75.30;;;;;;6110524;23;20215;-75
2022/03/08 04:09:32;;;;;;;11.15;9.77;;;-0.70;75.60;;;;;;6118137;23;20192;-75
2022/03/08 04:11:59;;;;;;;12.65;11.35;;;-0.70;75.30;;;;;;6120003;23;20217;-74
2022/03/08 04:14:26;;;;;;;11.23;10.02;;;-0.70;75.50;;;;;;6107978;23;20196;-74
2022/03/08 04:16:53;;;;;;;10.48;9.45;;;-0.80;75.70;;;;;;6107778;23;20246;-73
2022/03/08 04:19:20;;;;;;;12.50;11.20;;;-0.80;75.90;;;;;;6112853;23;20266;-74
2022/03/08 04:21:48;;;;;;;11.80;10.60;;;-0.80;76.20;;;;;;6106255;23;20279;-74
2022/03/08 04:24:15;;;;;;;11.70;10.15;;;-0.80;76.30;;;;;;6111908;23;20199;-74
2022/03/08 04:26:43;;;;;;;11.55;10.45;;;-0.90;77.00;;;;;;6112174;23;20221;-74
2022/03/08 04:29:10;;;;;;;11.77;10.68;;;-0.90;77.10;;;;;;6116856;23;20542;-74
2022/03/08 04:31:36;;;;;;;11.77;10.63;;;-0.90;77.40;;;;;;6105964;23;20215;-74
2022/03/08 04:34:04;;;;;;;11.85;10.40;;;-1.00;77.90;;;;;;6116824;23;20703;-75
2022/03/08 04:36:30;;;;;;;12.88;11.52;;;-1.00;77.90;;;;;;6110103;23;20191;-74
2022/03/08 04:38:59;;;;;;;12.20;10.90;;;-1.00;78.20;;;;;;6118938;23;20298;-74
2022/03/08 04:41:26;;;;;;;13.57;11.68;;;-1.10;78.10;;;;;;6098007;23;20188;-73
2022/03/08 04:43:53;;;;;;;12.90;10.55;;;-1.10;78.60;;;;;;6113235;23;20241;-74
2022/03/08 04:46:20;;;;;;;12.75;11.00;;;-1.20;78.50;;;;;;6114662;23;20241;-74
2022/03/08 04:48:47;;;;;;;11.43;10.23;;;-1.20;78.50;;;;;;6119090;23;20191;-73
2022/03/08 04:51:14;;;;;;;11.38;10.18;;;-1.20;78.90;;;;;;6115510;23;20623;-73
2022/03/08 04:53:42;;;;;;;11.40;10.20;;;-1.20;79.40;;;;;;6117517;23;20211;-75
2022/03/08 04:56:10;;;;;;;10.98;9.80;;;-1.20;79.20;;;;;;6106698;23;20661;-73
2022/03/08 04:58:37;;;;;;;11.77;10.55;;;-1.20;78.80;;;;;;6109691;23;20242;-75
2022/03/08 05:01:04;;;;;;;13.48;11.13;;;-1.20;79.40;;;;;;6111717;23;20250;-74
2022/03/08 05:03:31;;;;;;;11.82;10.57;;;-1.20;78.00;;;;;;6110561;23;20215;-74
2022/03/08 05:05:58;;;;;;;11.82;10.52;;;-1.20;78.50;;;;;;6112178;23;20223;-75
2022/03/08 05:08:25;;;;;;;11.43;9.98;;;-1.20;78.40;;;;;;6120457;23;20191;-74
2022/03/08 05:10:52;;;;;;;11.07;9.98;;;-1.20;78.20;;;;;;6114796;23;20643;-74
2022/03/08 05:13:20;;;;;;;11.23;9.82;;;-1.20;77.70;;;;;;6100388;23;20726;-75
2022/03/08 05:15:48;;;;;;;11.13;9.98;;;-1.30;77.70;;;;;;6115956;23;20227;-74
2022/03/08 05:18:16;;;;;;;10.82;9.73;;;-1.30;77.60;;;;;;6102041;23;20191;-74
2022/03/08 05:20:43;;;;;;;11.25;9.75;;;-1.40;77.70;;;;;;6107761;23;20196;-74
2022/03/08 05:23:10;;;;;;;10.13;9.07;;;-1.40;78.50;;;;;;6108632;23;20341;-74
2022/03/08 05:25:37;;;;;;;11.20;8.88;;;-1.30;78.40;;;;;;6113926;23;20198;-74
2022/03/08 05:28:04;;;;;;;11.02;9.57;;;-1.20;78.10;;;;;;6113326;23;20191;-74
2022/03/08 05:30:33;;;;;;;10.50;9.05;;;-1.20;78.40;;;;;;6102897;23;20187;-75
2022/03/08 05:33:00;;;;;;;10.27;9.25;;;-1.10;77.80;;;;;;6109853;23;20579;-75
2022/03/08 05:35:27;;;;;;;10.38;9.38;;;-1.10;77.50;;;;;;6111165;23;20198;-75
2022/03/08 05:37:55;;;;;;;10.30;9.20;;;-1.00;77.00;;;;;;6107827;23;20211;-74
2022/03/08 05:40:23;;;;;;;11.65;9.70;;;-1.00;76.80;;;;;;6105244;23;20176;-82
2022/03/08 05:42:51;;;;;;;11.27;10.18;;;-0.90;76.80;;;;;;6113950;23;20257;-74
2022/03/08 05:45:18;;;;;;;12.00;10.55;;;-0.90;76.90;;;;;;6105857;23;20453;-76
2022/03/08 05:47:47;;;;;;;11.05;9.95;;;-0.90;76.90;;;;;;6116220;23;20257;-75
2022/03/08 05:50:15;;;;;;;11.02;9.93;;;-0.90;76.80;;;;;;6117398;23;20218;-75
2022/03/08 05:52:43;;;;;;;11.43;10.23;;;-0.90;76.60;;;;;;6115081;23;20203;-75
2022/03/08 05:55:10;;;;;;;10.30;9.30;;;-0.90;76.60;;;;;;6106113;23;20215;-74
2022/03/08 05:57:37;;;;;;;12.60;10.52;;;-0.80;76.30;;;;;;6107372;23;20188;-76
2022/03/08 06:00:06;;;;;;;11.43;10.20;;;-0.80;76.80;;;;;;6100263;23;21664;-75
2022/03/08 06:02:33;;;;;;;11.73;10.52;;;-0.80;76.20;;;;;;6095130;23;20216;-75
2022/03/08 06:05:02;;;;;;;11.48;9.73;;;-0.80;76.50;;;;;;6103860;23;20662;-75
2022/03/08 06:07:28;;;;;;;11.60;10.40;;;-0.80;77.00;;;;;;6106708;23;20216;-76
2022/03/08 06:09:55;;;;;;;10.98;9.88;;;-0.70;76.10;;;;;;6099730;23;20180;-75
2022/03/08 06:12:22;;;;;;;11.00;9.90;;;-0.60;76.00;;;;;;6106626;23;20290;-74
2022/03/08 06:14:49;;;;;;;12.07;9.63;;;-0.40;76.30;;;;;;6114337;23;20191;-75
2022/03/08 06:17:16;;;;;;;9.90;8.90;;;-0.20;75.00;;;;;;6119141;23;20187;-75
2022/03/08 06:19:43;;;;;;;11.75;9.93;;;0.10;73.70;;;;;;6112968;23;20222;-75
2022/03/08 06:22:11;;;;;;;10.63;9.52;;;0.50;73.10;;;;;;6106144;23;20282;-75
2022/03/08 06:24:38;;;;;;;12.05;10.70;;;0.80;72.70;;;;;;6113729;23;20203;-75
2022/03/08 06:27:05;;;;;;;10.55;9.38;;;1.40;71.70;;;;;;6100636;23;20250;-74
2022/03/08 06:29:32;;;;;;;11.40;10.40;;;1.90;70.80;;;;;;6117971;23;20176;-76
2022/03/08 06:31:59;;;;;;;9.05;8.15;;;2.40;68.40;;;;;;6112171;23;20205;-75
2022/03/08 06:34:26;;;;;;;10.40;9.40;;;3.10;66.10;;;;;;6115093;23;20193;-76
2022/03/08 06:36:53;;;;;;;9.57;8.57;;;3.60;64.40;;;;;;6110951;23;20198;-75
2022/03/08 06:39:22;;;;;;;9.95;8.93;;;4.10;62.90;;;;;;6118407;23;20184;-76
2022/03/08 06:41:49;;;;;;;10.40;9.45;;;4.60;61.60;;;;;;6121524;23;20290;-74
2022/03/08 06:44:16;;;;;;;9.30;8.45;;;5.10;60.10;;;;;;6113334;23;20179;-75
2022/03/08 06:46:44;;;;;;;9.93;9.02;;;5.50;58.90;;;;;;6114731;23;20294;-75
2022/03/08 06:49:11;;;;;;;9.65;8.50;;;5.80;58.40;;;;;;6103666;23;20179;-75
2022/03/08 06:51:38;;;;;;;9.00;8.23;;;6.30;57.90;;;;;;6106225;23;20737;-76
2022/03/08 06:54:06;;;;;;;9.27;8.40;;;6.80;57.10;;;;;;6114487;23;20262;-75
2022/03/08 06:56:35;;;;;;;10.95;9.95;;;7.30;56.40;;;;;;6110568;23;20188;-75
2022/03/08 06:59:02;;;;;;;11.85;10.75;;;7.80;55.50;;;;;;6109754;23;20188;-76
2022/03/08 07:01:29;;;;;;;11.45;10.40;;;8.30;54.70;;;;;;6112745;23;20200;-75
2022/03/08 07:03:56;;;;;;;11.63;10.43;;;8.70;53.70;;;;;;6117567;23;20184;-76
2022/03/08 07:06:23;;;;;;;10.45;9.43;;;9.10;53.00;;;;;;6105063;23;20348;-76
2022/03/08 07:08:50;;;;;;;10.00;9.05;;;9.60;52.50;;;;;;6103447;23;20263;-75
2022/03/08 07:11:17;;;;;;;9.35;8.52;;;9.90;51.40;;;;;;6115470;23;20190;-75
2022/03/08 07:13:46;;;;;;;9.00;8.20;;;10.20;49.10;;;;;;6115169;23;20194;-75
2022/03/08 07:16:13;;;;;;;21.20;9.93;;;10.30;47.90;;;;;;6097970;23;20272;-76
2022/03/08 07:18:40;;;;;;;19.35;10.57;;;10.40;47.90;;;;;;6111200;23;20191;-75
2022/03/08 07:21:07;;;;;;;9.52;8.63;;;10.40;47.80;;;;;;6119159;23;20201;-75
2022/03/08 07:23:34;;;;;;;10.15;8.95;;;10.60;47.50;;;;;;6108916;23;20194;-76
2022/03/08 07:26:01;;;;;;;9.32;8.23;;;10.90;46.40;;;;;;6098553;23;20618;-75
2022/03/08 07:28:28;;;;;;;9.20;8.30;;;10.90;46.10;;;;;;6113738;23;20221;-75
2022/03/08 07:30:57;;;;;;;8.82;8.02;;;11.00;46.20;;;;;;6101951;23;20182;-76
2022/03/08 07:33:24;;;;;;;8.65;7.85;;;11.30;45.70;;;;;;6114886;23;20211;-76
2022/03/08 07:35:50;;;;;;;9.20;8.23;;;11.30;45.30;;;;;;6098145;23;20191;-75
2022/03/08 07:38:18;;;;;;;10.57;9.00;;;11.20;45.60;;;;;;6116806;23;20479;-75
2022/03/08 07:40:45;;;;;;;9.32;8.57;;;11.10;45.80;;;;;;6120286;23;20197;-75
2022/03/08 07:43:12;;;;;;;9.07;8.27;;;11.20;46.10;;;;;;6110791;23;20713;-75
2022/03/08 07:45:39;;;;;;;9.52;8.65;;;11.60;45.30;;;;;;6119921;23;20200;-75
2022/03/08 07:48:08;;;;;;;9.60;8.73;;;11.80;45.20;;;;;;6107006;23;20685;-75
2022/03/08 07:50:36;;;;;;;8.70;8.00;;;12.10;44.80;;;;;;6120288;23;20194;-75
2022/03/08 07:53:04;;;;;;;8.48;7.75;;;12.30;43.90;;;;;;6119222;23;20211;-75
2022/03/08 07:55:31;;;;;;;8.57;7.82;;;12.50;43.40;;;;;;6107100;23;20195;-74
2022/03/08 07:57:58;;;;;;;9.38;8.57;;;12.50;43.70;;;;;;6106985;23;20188;-75
2022/03/08 08:00:26;;;;;;;9.57;8.70;;;12.70;43.50;;;;;;6119285;23;20785;-75
2022/03/08 08:02:53;;;;;;;9.43;8.55;;;12.90;43.60;;;;;;6118957;23;20207;-75
2022/03/08 08:05:21;;;;;;;8.57;7.90;;;13.20;43.70;;;;;;6119996;23;20191;-75
2022/03/08 08:07:49;;;;;;;8.90;8.05;;;13.30;42.90;;;;;;6114173;23;20223;-75
2022/03/08 08:10:16;;;;;;;9.43;8.52;;;13.30;42.20;;;;;;6090922;23;20245;-75
2022/03/08 08:12:42;;;;;;;8.88;8.07;;;13.50;42.50;;;;;;6103190;23;20705;-76
2022/03/08 08:15:10;;;;;;;8.15;7.45;;;13.30;42.20;;;;;;6118148;23;20193;-76
2022/03/08 08:17:37;;;;;;;8.05;7.35;;;13.30;42.50;;;;;;6118280;23;20194;-76
2022/03/08 08:20:08;;;;;;;8.50;7.70;;;13.00;42.10;;;;;;6118660;23;20207;-75
2022/03/08 08:22:36;;;;;;;8.85;8.05;;;12.50;42.90;;;;;;6120153;23;20336;-75
2022/03/08 08:25:04;;;;;;;8.50;7.80;;;12.50;43.20;;;;;;6119408;23;20215;-74
2022/03/08 08:27:30;;;;;;;8.68;7.97;;;12.30;43.20;;;;;;6097976;23;20212;-74
2022/03/08 08:29:58;;;;;;;8.77;8.07;;;12.40;43.70;;;;;;6115998;23;20187;-74
2022/03/08 08:32:24;;;;;;;8.25;7.53;;;12.20;43.50;;;;;;6120999;23;20243;-75
2022/03/08 08:34:51;;;;;;;7.75;7.15;;;12.40;43.70;;;;;;6119877;23;20946;-75
2022/03/08 08:37:18;;;;;;;7.57;6.97;;;12.20;43.50;;;;;;6119521;23;20189;-75
2022/03/08 08:39:47;;;;;;;8.55;7.85;;;11.60;43.70;;;;;;6110895;23;20194;-74
2022/03/08 08:42:14;;;;;;;7.68;7.07;;;11.20;44.50;;;;;;6120776;23;20290;-75
2022/03/08 08:44:41;;;;;;;8.75;7.95;;;11.30;44.90;;;;;;6100025;23;20492;-75
2022/03/08 08:47:08;;;;;;;8.20;7.57;;;11.20;44.70;;;;;;6091377;23;20210;-74
2022/03/08 08:49:34;;;;;;;7.30;6.68;;;11.10;45.20;;;;;;6116092;23;20230;-74
2022/03/08 08:52:01;;;;;;;8.77;7.97;;;11.30;45.50;;;;;;6117764;23;20721;-74
2022/03/08 08:54:28;;;;;;;8.40;7.70;;;11.40;45.20;;;;;;6120895;23;20184;-74
2022/03/08 08:56:57;;;;;;;7.75;7.05;;;11.50;45.20;;;;;;6119703;23;20221;-74
2022/03/08 08:59:24;;;;;;;8.95;8.18;;;11.80;45.40;;;;;;6107860;23;20596;-74
2022/03/08 09:01:50;;;;;;;8.45;7.68;;;11.70;45.20;;;;;;6095434;23;20219;-74
2022/03/08 09:04:17;;;;;;;8.40;7.70;;;11.90;45.30;;;;;;6120194;23;20186;-75
2022/03/08 09:06:45;;;;;;;9.40;8.60;;;12.00;45.30;;;;;;6118907;23;20187;-74
2022/03/08 09:09:12;;;;;;;8.90;8.07;;;12.20;45.70;;;;;;6112912;23;20194;-75
2022/03/08 09:11:39;;;;;;;8.98;8.05;;;12.40;45.20;;;;;;6119980;23;20207;-75
2022/03/08 09:14:08;;;;;;;8.93;8.05;;;12.10;45.20;;;;;;6120391;23;20266;-74
2022/03/08 09:16:36;;;;;;;8.75;7.95;;;11.90;45.70;;;;;;6100892;23;20669;-74
2022/03/08 09:19:03;;;;;;;8.43;7.63;;;12.20;45.70;;;;;;6120391;23;20685;-74
2022/03/08 09:21:30;;;;;;;8.27;7.47;;;11.80;45.50;;;;;;6097480;23;20216;-74
2022/03/08 09:23:57;;;;;;;8.55;7.85;;;12.00;46.70;;;;;;6091867;23;20188;-74
2022/03/08 09:26:24;;;;;;;8.88;8.13;;;12.30;45.80;;;;;;6097004;23;20188;-75
2022/03/08 09:28:51;;;;;;;8.35;7.65;;;12.70;45.60;;;;;;6116943;23;20214;-75
2022/03/08 09:31:19;;;;;;;7.45;6.85;;;13.20;45.30;;;;;;6117834;23;20912;-75
2022/03/08 09:33:46;;;;;;;6.55;6.05;;;13.40;45.10;;;;;;6113467;23;20188;-75
2022/03/08 09:36:13;;;;;;;6.90;6.20;;;13.00;43.70;;;;;;6114186;23;20247;-74
2022/03/08 09:38:40;;;;;;;6.50;5.90;;;12.60;44.20;;;;;;6114948;23;20420;-75
2022/03/08 09:41:07;;;;;;;6.70;6.10;;;12.50;44.40;;;;;;6115480;23;20195;-74
2022/03/08 09:43:37;;;;;;;6.20;5.70;;;12.30;44.40;;;;;;6119788;23;20188;-74
2022/03/08 09:46:04;;;;;;;6.22;5.70;;;12.20;44.80;;;;;;6120545;23;20265;-75
2022/03/08 09:48:33;;;;;;;6.47;5.88;;;12.10;44.60;;;;;;6114157;23;20224;-74
2022/03/08 09:51:00;;;;;;;6.47;5.18;;;11.70;44.90;;;;;;6108183;23;20223;-74
2022/03/08 09:53:30;;;;;;;5.85;5.35;;;11.60;44.00;;;;;;6117942;23;20225;-74
2022/03/08 09:55:58;;;;;;;5.95;5.47;;;11.30;44.50;;;;;;6119876;23;20184;-75
2022/03/08 09:58:25;;;;;;;5.00;4.60;;;11.30;44.60;;;;;;6116726;23;20207;-75
2022/03/08 10:00:55;;;;;;;6.38;5.38;;;11.20;44.10;;;;;;6112524;23;20293;-75
2022/03/08 10:03:34;;;;;;;6.13;5.63;;;11.10;44.80;;;;;;6120509;23;20197;-74
2022/03/08 10:06:02;;;;;;;5.68;5.18;;;10.70;44.80;;;;;;6116289;23;20187;-75
2022/03/08 10:08:29;;;;;;;5.45;4.95;;;10.80;44.60;;;;;;6111012;23;20675;-75
2022/03/08 10:10:58;;;;;;;5.72;4.90;;;11.00;44.40;;;;;;6109301;23;20248;-75
2022/03/08 10:13:28;;;;;;;4.82;4.47;;;11.40;44.80;;;;;;6118287;23;20271;-75
2022/03/08 10:16:12;;;;;;;5.32;4.85;;;11.90;43.90;;;;;;6099486;23;20194;-75
2022/03/08 10:18:44;;;;;;;5.03;4.63;;;11.80;42.80;;;;;;6118099;23;20240;-74
2022/03/08 10:21:32;;;;;;;5.70;5.20;;;11.50;42.70;;;;;;6112821;23;20696;-74
2022/03/08 10:24:01;;;;;;;5.38;4.90;;;11.30;43.60;;;;;;6120231;23;20506;-76
2022/03/08 10:26:29;;;;;;;5.65;5.15;;;11.80;44.00;;;;;;6109321;23;20191;-75
2022/03/08 10:28:57;;;;;;;5.30;4.80;;;12.00;43.70;;;;;;6108510;23;20242;-75
2022/03/08 10:31:25;;;;;;;6.70;5.30;;;12.40;42.50;;;;;;6101910;23;20216;-76
2022/03/08 10:34:03;;;;;;;5.55;5.15;;;12.70;42.80;;;;;;6091365;23;20188;-75
2022/03/08 10:36:31;;;;;;;5.72;5.22;;;12.70;42.30;;;;;;6111823;23;20266;-75
2022/03/08 10:39:13;;;;;;;4.82;4.43;;;12.20;41.40;;;;;;6119541;23;20297;-75
2022/03/08 10:41:48;;;;;;;4.70;4.30;;;12.10;41.60;;;;;;6109167;23;20320;-75
2022/03/08 10:44:15;;;;;;;5.30;4.80;;;11.50;41.40;;;;;;6108398;23;20511;-75
2022/03/08 10:46:42;;;;;;;4.53;4.13;;;11.30;42.10;;;;;;6119864;23;20270;-75
2022/03/08 10:49:14;;;;;;;5.20;4.80;;;11.20;42.10;;;;;;6112763;23;20326;-75
2022/03/08 10:51:41;;;;;;;5.07;4.13;;;11.70;41.80;;;;;;6108702;23;20290;-75
2022/03/08 10:54:12;;;;;;;4.85;4.45;;;11.80;42.40;;;;;;6119035;23;20195;-76
2022/03/08 10:56:44;;;;;;;4.82;4.43;;;12.10;41.20;;;;;;6111083;23;20535;-75
2022/03/08 10:59:12;;;;;;;6.68;4.78;;;12.10;40.90;;;;;;6114883;23;20195;-76
2022/03/08 11:01:39;;;;;;;5.30;4.35;;;12.00;41.00;;;;;;6119495;23;20554;-77
2022/03/08 11:04:19;;;;;;;4.93;4.53;;;12.00;39.70;;;;;;6102912;23;20188;-78
2022/03/08 11:06:50;;;;;;;4.47;4.07;;;11.50;39.90;;;;;;6095933;23;20188;-80
2022/03/08 11:09:18;;;;;;;5.05;4.55;;;11.30;40.10;;;;;;6115035;23;20261;-78
2022/03/08 11:11:45;;;;;;;4.78;4.05;;;11.40;40.10;;;;;;6119331;23;20203;-79
2022/03/08 11:14:12;;;;;;;4.38;3.97;;;11.60;41.50;;;;;;6116330;23;20730;-75
2022/03/08 11:16:40;;;;;;;4.22;3.83;;;12.10;41.10;;;;;;6118575;23;20191;-72
2022/03/08 11:19:08;;;;;;;6.70;4.35;;;12.80;40.50;;;;;;6093083;23;20195;-73
2022/03/08 11:21:37;;;;;;;4.63;4.22;;;13.30;39.10;;;;;;6112671;23;20675;-73
2022/03/08 11:24:05;;;;;;;4.38;4.00;;;13.20;39.10;;;;;;6120443;23;20211;-74
2022/03/08 11:26:32;;;;;;;4.90;4.50;;;12.80;39.20;;;;;;6119120;23;20230;-75
2022/03/08 11:29:01;;;;;;;5.10;4.70;;;12.50;39.30;;;;;;6112804;23;20218;-75
2022/03/08 11:31:31;;;;;;;4.50;4.20;;;12.60;39.80;;;;;;6110746;23;20566;-75
2022/03/08 11:34:05;;;;;;;4.57;4.18;;;12.60;39.50;;;;;;6118656;23;20196;-72
2022/03/08 11:36:34;;;;;;;4.25;3.95;;;12.90;38.30;;;;;;6091006;23;20218;-75
2022/03/08 11:39:17;;;;;;;4.75;4.10;;;12.60;38.80;;;;;;6102599;23;20240;-73
2022/03/08 11:41:47;;;;;;;4.35;3.95;;;13.10;39.50;;;;;;6111437;23;20277;-75
2022/03/08 11:44:29;;;;;;;4.73;4.27;;;13.50;39.00;;;;;;6102585;23;20187;-75
2022/03/08 11:47:10;;;;;;;5.47;4.18;;;13.80;39.00;;;;;;6117708;23;20434;-74
2022/03/08 11:49:46;;;;;;;4.80;4.40;;;14.30;38.20;;;;;;6119338;23;20282;-75
2022/03/08 11:52:17;;;;;;;4.38;4.07;;;14.10;37.30;;;;;;6119112;23;20457;-74
2022/03/08 11:54:57;;;;;;;4.67;4.27;;;13.80;37.50;;;;;;6116150;23;20266;-75
2022/03/08 11:57:56;;;;;;;4.63;4.23;;;13.80;37.90;;;;;;6111475;23;20469;-75
2022/03/08 12:00:26;;;;;;;4.80;4.40;;;13.60;37.60;;;;;;6099298;23;21069;-75
2022/03/08 12:02:55;;;;;;;4.30;4.00;;;13.50;37.50;;;;;;6103738;23;20206;-75
2022/03/08 12:05:56;;;;;;;3.55;3.33;;;13.70;37.50;;;;;;6121095;23;20516;-77
2022/03/08 12:08:42;;;;;;;5.03;4.53;;;13.70;37.60;;;;;;6120347;23;20227;-74
2022/03/08 12:11:36;;;;;;;4.93;4.43;;;13.60;36.80;;;;;;6099147;23;20214;-76
2022/03/08 12:14:08;;;;;;;4.47;4.07;;;13.90;37.20;;;;;;6111979;23;20194;-77
2022/03/08 12:16:36;;;;;;;4.20;3.90;;;14.20;37.10;;;;;;6113334;23;20447;-87
2022/03/08 12:19:04;;;;;;;4.40;4.10;;;14.50;37.20;;;;;;6092832;23;20533;-81
2022/03/08 12:21:46;;;;;;;4.60;4.20;;;15.00;37.00;;;;;;6097409;23;20459;-80
2022/03/08 12:24:17;;;;;;;4.60;4.27;;;15.10;37.00;;;;;;6092231;23;20541;-83
2022/03/08 12:26:59;;;;;;;4.60;4.20;;;15.10;36.50;;;;;;6110382;23;20443;-81
2022/03/08 12:29:28;;;;;;;4.30;4.00;;;14.90;36.70;;;;;;6092717;23;21046;-81
2022/03/08 12:32:25;;;;;;;4.90;4.50;;;15.30;36.70;;;;;;6102186;23;20560;-81
2022/03/08 12:35:01;;;;;;;4.67;4.23;;;15.20;36.60;;;;;;6092322;23;20442;-80
2022/03/08 12:37:30;;;;;;;4.80;4.40;;;14.90;36.40;;;;;;6109451;23;20436;-80
2022/03/08 12:40:00;;;;;;;5.70;5.20;;;14.90;36.40;;;;;;6103833;23;20905;-81
2022/03/08 12:42:32;;;;;;;4.40;4.00;;;14.90;36.90;;;;;;6115439;23;20464;-83
2022/03/08 12:45:04;;;;;;;4.87;4.47;;;15.10;36.60;;;;;;6121289;23;20432;-80